Time;durP1;ratioP1;P1;durP2;ratioP2;P2;SDS_P1;SDS_P2;PMS_P1;PMS_P2;Temp;Humidity;BMP_temperature;BMP_pressure;BME280_temperature;BME280_humidity;BME280_pressure;Samples;Min_cycle;Max_cycle;Signal;HPM_P1;HPM_P2
2021/06/15 00:00:44;;;;;;;0.00;0.00;;;;;;;;;;5082684;28;20059;-69
2021/06/15 00:03:09;;;;;;;0.00;0.00;;;;;;;;;;5083307;28;20016;-68
2021/06/15 00:05:34;;;;;;;0.00;0.00;;;;;;;;;;5085576;28;20278;-69
2021/06/15 00:07:59;;;;;;;0.00;0.00;;;;;;;;;;5082480;28;20254;-68
2021/06/15 00:10:25;;;;;;;0.00;0.00;;;;;;;;;;5092862;28;20020;-69
2021/06/15 00:12:50;;;;;;;0.00;0.00;;;;;;;;;;5082461;28;20269;-69
2021/06/15 00:15:16;;;;;;;0.00;0.00;;;;;;;;;;5068453;28;20035;-68
2021/06/15 00:17:41;;;;;;;0.00;0.00;;;;;;;;;;5081743;28;20027;-68
2021/06/15 00:20:06;;;;;;;0.00;0.00;;;;;;;;;;5078222;28;20081;-68
2021/06/15 00:22:31;;;;;;;0.00;0.00;;;;;;;;;;5083653;28;20012;-69
2021/06/15 00:24:57;;;;;;;0.00;0.00;;;;;;;;;;5091908;28;20016;-68
2021/06/15 00:27:22;;;;;;;0.00;0.00;;;;;;;;;;5079618;28;20808;-69
2021/06/15 00:29:47;;;;;;;0.00;0.00;;;;;;;;;;5091785;28;20043;-68
2021/06/15 00:32:12;;;;;;;0.00;0.00;;;;;;;;;;5092029;28;20370;-68
2021/06/15 00:34:37;;;;;;;0.00;0.00;;;;;;;;;;5083708;28;20016;-68
2021/06/15 00:37:05;;;;;;;0.00;0.00;;;;;;;;;;5091556;28;20026;-68
2021/06/15 00:39:30;;;;;;;0.00;0.00;;;;;;;;;;5083485;28;20289;-69
2021/06/15 00:41:55;;;;;;;0.00;0.00;;;;;;;;;;5091885;28;20040;-68
2021/06/15 00:44:23;;;;;;;0.00;0.00;;;;;;;;;;5082073;28;20111;-69
2021/06/15 00:46:48;;;;;;;0.00;0.00;;;;;;;;;;5082255;28;20258;-68
2021/06/15 00:49:13;;;;;;;0.00;0.00;;;;;;;;;;5065242;28;20024;-69
2021/06/15 00:51:39;;;;;;;0.00;0.00;;;;;;;;;;5080376;28;20475;-69
2021/06/15 00:54:04;;;;;;;0.00;0.00;;;;;;;;;;5082175;28;20111;-69
2021/06/15 00:56:29;;;;;;;0.00;0.00;;;;;;;;;;5081477;28;20024;-68
2021/06/15 00:58:54;;;;;;;0.00;0.00;;;;;;;;;;5082043;28;20307;-69
2021/06/15 01:01:19;;;;;;;0.00;0.00;;;;;;;;;;5084122;28;20615;-68
2021/06/15 01:03:45;;;;;;;0.00;0.00;;;;;;;;;;5081007;28;20365;-68
2021/06/15 01:06:15;;;;;;;0.00;0.00;;;;;;;;;;5084135;28;20284;-68
2021/06/15 01:08:46;;;;;;;0.00;0.00;;;;;;;;;;5083746;28;20092;-69
2021/06/15 01:11:15;;;;;;;0.00;0.00;;;;;;;;;;5070029;28;20022;-69
2021/06/15 01:13:40;;;;;;;0.03;0.03;;;;;;;;;;5095165;28;20027;-69
2021/06/15 01:16:06;;;;;;;0.00;0.00;;;;;;;;;;5094935;28;20372;-69
2021/06/15 01:18:32;;;;;;;0.00;0.00;;;;;;;;;;5070691;28;20464;-68
2021/06/15 01:21:02;;;;;;;0.00;0.00;;;;;;;;;;5067613;28;20020;-68
2021/06/15 01:23:28;;;;;;;0.00;0.00;;;;;;;;;;5085431;28;20019;-69
2021/06/15 01:26:02;;;;;;;0.00;0.00;;;;;;;;;;5095066;28;20095;-68
2021/06/15 01:28:31;;;;;;;0.00;0.00;;;;;;;;;;5101943;28;20024;-68
2021/06/15 01:31:02;;;;;;;0.00;0.00;;;;;;;;;;5084913;28;20020;-69
2021/06/15 01:33:27;;;;;;;0.00;0.00;;;;;;;;;;5082564;28;20031;-68
2021/06/15 01:35:53;;;;;;;0.00;0.00;;;;;;;;;;5078193;28;20070;-69
2021/06/15 01:38:18;;;;;;;0.00;0.00;;;;;;;;;;5062020;28;20932;-69
2021/06/15 01:40:45;;;;;;;0.00;0.00;;;;;;;;;;5094430;28;20063;-69
2021/06/15 01:43:12;;;;;;;0.00;0.00;;;;;;;;;;5083958;28;20031;-69
2021/06/15 01:45:41;;;;;;;0.00;0.00;;;;;;;;;;5084936;28;20016;-69
2021/06/15 01:48:12;;;;;;;0.00;0.00;;;;;;;;;;5084738;28;20012;-68
2021/06/15 01:50:38;;;;;;;0.00;0.00;;;;;;;;;;5083888;28;20020;-68
2021/06/15 01:53:04;;;;;;;0.00;0.00;;;;;;;;;;5083964;28;20162;-68
2021/06/15 01:55:30;;;;;;;0.00;0.00;;;;;;;;;;5086154;28;20066;-69
2021/06/15 01:57:55;;;;;;;0.00;0.00;;;;;;;;;;5085246;28;20491;-68
2021/06/15 02:00:20;;;;;;;0.00;0.00;;;;;;;;;;5076404;28;20036;-68
2021/06/15 02:02:48;;;;;;;0.00;0.00;;;;;;;;;;5069402;28;20765;-68
2021/06/15 02:05:13;;;;;;;0.00;0.00;;;;;;;;;;5094606;28;20020;-69
2021/06/15 02:07:40;;;;;;;0.00;0.00;;;;;;;;;;5081975;28;20495;-69
2021/06/15 02:10:06;;;;;;;0.00;0.00;;;;;;;;;;5083506;28;20764;-69
2021/06/15 02:12:32;;;;;;;0.00;0.00;;;;;;;;;;5094147;28;20045;-69
2021/06/15 02:14:57;;;;;;;0.00;0.00;;;;;;;;;;5068808;28;20036;-69
2021/06/15 02:17:24;;;;;;;0.00;0.00;;;;;;;;;;5084389;28;20020;-69
2021/06/15 02:19:49;;;;;;;0.00;0.00;;;;;;;;;;5084698;28;20020;-69
2021/06/15 02:22:15;;;;;;;0.00;0.00;;;;;;;;;;5084161;28;20012;-69
2021/06/15 02:24:42;;;;;;;0.00;0.00;;;;;;;;;;5083138;28;20289;-68
2021/06/15 02:27:08;;;;;;;0.00;0.00;;;;;;;;;;5082920;28;20107;-70
2021/06/15 02:29:33;;;;;;;0.00;0.00;;;;;;;;;;5066876;28;20116;-68
2021/06/15 02:31:59;;;;;;;0.00;0.00;;;;;;;;;;5093675;28;20027;-69
2021/06/15 02:34:25;;;;;;;0.00;0.00;;;;;;;;;;5084921;28;20277;-68
2021/06/15 02:36:50;;;;;;;0.00;0.00;;;;;;;;;;5084916;28;20099;-69
2021/06/15 02:39:18;;;;;;;0.00;0.00;;;;;;;;;;5068756;28;20140;-69
2021/06/15 02:41:43;;;;;;;0.00;0.00;;;;;;;;;;5086337;28;20024;-69
2021/06/15 02:44:08;;;;;;;0.00;0.00;;;;;;;;;;5100552;28;20486;-68
2021/06/15 02:46:34;;;;;;;0.00;0.00;;;;;;;;;;5083581;28;20384;-68
2021/06/15 02:49:00;;;;;;;0.00;0.00;;;;;;;;;;5093348;28;20517;-68
2021/06/15 02:51:33;;;;;;;0.00;0.00;;;;;;;;;;5083069;28;20024;-69
2021/06/15 02:54:02;;;;;;;0.00;0.00;;;;;;;;;;5067854;28;20106;-69
2021/06/15 02:56:28;;;;;;;0.00;0.00;;;;;;;;;;5085158;28;20020;-68
2021/06/15 02:58:53;;;;;;;0.00;0.00;;;;;;;;;;5082916;28;20034;-69
2021/06/15 03:01:18;;;;;;;0.00;0.00;;;;;;;;;;5081628;28;20734;-68
2021/06/15 03:03:43;;;;;;;0.00;0.00;;;;;;;;;;5082472;28;20262;-69
2021/06/15 03:06:08;;;;;;;0.00;0.00;;;;;;;;;;5093181;28;20535;-68
2021/06/15 03:08:34;;;;;;;0.00;0.00;;;;;;;;;;5093160;28;20266;-69
2021/06/15 03:11:00;;;;;;;0.00;0.00;;;;;;;;;;5085010;28;20055;-68
2021/06/15 03:13:29;;;;;;;0.00;0.00;;;;;;;;;;5084714;28;20468;-68
2021/06/15 03:15:54;;;;;;;0.00;0.00;;;;;;;;;;5093309;28;20384;-68
2021/06/15 03:18:27;;;;;;;0.00;0.00;;;;;;;;;;5087509;28;20016;-68
2021/06/15 03:20:52;;;;;;;0.00;0.00;;;;;;;;;;5067159;28;20053;-68
2021/06/15 03:23:30;;;;;;;0.00;0.00;;;;;;;;;;5082938;28;20044;-68
2021/06/15 03:25:56;;;;;;;0.00;0.00;;;;;;;;;;5098419;28;20908;-68
2021/06/15 03:28:23;;;;;;;0.00;0.00;;;;;;;;;;5082076;28;20016;-68
2021/06/15 03:30:48;;;;;;;0.00;0.00;;;;;;;;;;5080683;28;20463;-68
2021/06/15 03:33:14;;;;;;;0.00;0.00;;;;;;;;;;5065315;28;20028;-68
2021/06/15 03:35:40;;;;;;;0.00;0.00;;;;;;;;;;5091927;28;20069;-68
2021/06/15 03:38:06;;;;;;;0.00;0.00;;;;;;;;;;5084076;28;20132;-69
2021/06/15 03:40:33;;;;;;;0.00;0.00;;;;;;;;;;5082569;28;20102;-68
2021/06/15 03:42:58;;;;;;;0.00;0.00;;;;;;;;;;5080397;28;20062;-69
2021/06/15 03:45:24;;;;;;;0.00;0.00;;;;;;;;;;5079644;28;20370;-69
2021/06/15 03:47:49;;;;;;;0.00;0.00;;;;;;;;;;5066007;28;20023;-69
2021/06/15 03:50:15;;;;;;;0.00;0.00;;;;;;;;;;5065919;28;20039;-69
2021/06/15 03:52:40;;;;;;;0.00;0.00;;;;;;;;;;5066665;28;20757;-69
2021/06/15 03:55:07;;;;;;;0.00;0.00;;;;;;;;;;5083578;28;20031;-68
2021/06/15 03:57:32;;;;;;;0.00;0.00;;;;;;;;;;5082877;28;20020;-68
2021/06/15 03:59:57;;;;;;;0.00;0.00;;;;;;;;;;5082338;28;20076;-68
2021/06/15 04:02:26;;;;;;;0.00;0.00;;;;;;;;;;5074189;28;20077;-69
2021/06/15 04:04:51;;;;;;;0.00;0.00;;;;;;;;;;5083656;28;20025;-68
2021/06/15 04:07:17;;;;;;;0.00;0.00;;;;;;;;;;5081109;28;20472;-68
2021/06/15 04:09:42;;;;;;;0.00;0.00;;;;;;;;;;5091743;28;20258;-68
2021/06/15 04:12:09;;;;;;;0.00;0.00;;;;;;;;;;5091938;28;20090;-69
2021/06/15 04:14:34;;;;;;;0.00;0.00;;;;;;;;;;5091551;28;20292;-68
2021/06/15 04:17:01;;;;;;;0.00;0.00;;;;;;;;;;5079284;28;20019;-68
2021/06/15 04:19:26;;;;;;;0.00;0.00;;;;;;;;;;5080815;28;20387;-68
2021/06/15 04:21:52;;;;;;;0.00;0.00;;;;;;;;;;5062970;28;20026;-68
2021/06/15 04:24:19;;;;;;;0.10;0.10;;;;;;;;;;5062523;28;20016;-69
2021/06/15 04:26:45;;;;;;;0.00;0.00;;;;;;;;;;5082354;28;20020;-69
2021/06/15 04:29:10;;;;;;;0.00;0.00;;;;;;;;;;5083102;28;20532;-68
2021/06/15 04:31:36;;;;;;;0.00;0.00;;;;;;;;;;5081966;28;20067;-67
2021/06/15 04:34:01;;;;;;;0.00;0.00;;;;;;;;;;5078075;28;20081;-66
2021/06/15 04:36:27;;;;;;;0.00;0.00;;;;;;;;;;5071247;28;20078;-66
2021/06/15 04:38:58;;;;;;;0.00;0.00;;;;;;;;;;5068401;28;20036;-66
2021/06/15 04:41:28;;;;;;;0.00;0.00;;;;;;;;;;5089818;28;20024;-67
2021/06/15 04:43:57;;;;;;;0.00;0.00;;;;;;;;;;5090457;28;20032;-66
2021/06/15 04:46:25;;;;;;;0.00;0.00;;;;;;;;;;5065459;28;20472;-67
2021/06/15 04:48:55;;;;;;;0.00;0.00;;;;;;;;;;5088699;28;20532;-67
2021/06/15 04:51:20;;;;;;;0.00;0.00;;;;;;;;;;5093833;28;20032;-68
2021/06/15 04:53:46;;;;;;;0.00;0.00;;;;;;;;;;5084772;28;20039;-68
2021/06/15 04:56:11;;;;;;;0.00;0.00;;;;;;;;;;5084860;28;20020;-68
2021/06/15 04:58:36;;;;;;;0.00;0.00;;;;;;;;;;5084234;28;20286;-68
2021/06/15 05:01:01;;;;;;;0.00;0.00;;;;;;;;;;5068466;28;20336;-68
2021/06/15 05:03:30;;;;;;;0.00;0.00;;;;;;;;;;5085646;28;20266;-68
2021/06/15 05:05:57;;;;;;;0.00;0.00;;;;;;;;;;5082434;28;20031;-68
2021/06/15 05:08:23;;;;;;;0.10;0.10;;;;;;;;;;5085671;28;20016;-68
2021/06/15 05:10:50;;;;;;;0.00;0.00;;;;;;;;;;5085816;28;20365;-68
2021/06/15 05:13:15;;;;;;;0.00;0.00;;;;;;;;;;5082415;28;20028;-69
2021/06/15 05:15:42;;;;;;;0.00;0.00;;;;;;;;;;5067476;28;20027;-69
2021/06/15 05:18:08;;;;;;;0.00;0.00;;;;;;;;;;5082844;28;20266;-69
2021/06/15 05:20:33;;;;;;;0.00;0.00;;;;;;;;;;5067201;28;20550;-68
2021/06/15 05:23:00;;;;;;;0.00;0.00;;;;;;;;;;5086782;28;20157;-75
2021/06/15 05:25:26;;;;;;;0.00;0.00;;;;;;;;;;5087313;28;20272;-72
2021/06/15 05:27:52;;;;;;;0.00;0.00;;;;;;;;;;5094455;28;20023;-73
2021/06/15 05:30:17;;;;;;;0.00;0.00;;;;;;;;;;5085410;28;20028;-74
2021/06/15 05:32:42;;;;;;;0.00;0.00;;;;;;;;;;5067752;28;20452;-74
2021/06/15 05:35:08;;;;;;;0.00;0.00;;;;;;;;;;5084344;28;20038;-73
2021/06/15 05:37:34;;;;;;;0.00;0.00;;;;;;;;;;5094873;28;20052;-74
2021/06/15 05:39:59;;;;;;;0.00;0.00;;;;;;;;;;5088526;28;20031;-74
2021/06/15 05:42:25;;;;;;;0.00;0.00;;;;;;;;;;5085901;28;20020;-74
2021/06/15 05:44:50;;;;;;;0.00;0.00;;;;;;;;;;5086901;28;20379;-73
2021/06/15 05:47:15;;;;;;;0.00;0.00;;;;;;;;;;5069944;28;20158;-69
2021/06/15 05:49:40;;;;;;;0.00;0.00;;;;;;;;;;5068586;28;20039;-69
2021/06/15 05:52:06;;;;;;;0.00;0.00;;;;;;;;;;5083683;28;20430;-69
2021/06/15 05:54:32;;;;;;;0.00;0.00;;;;;;;;;;5085163;28;20285;-69
2021/06/15 05:56:57;;;;;;;0.00;0.00;;;;;;;;;;5087373;28;20388;-69
2021/06/15 05:59:22;;;;;;;0.00;0.00;;;;;;;;;;5081554;28;20023;-69
2021/06/15 06:01:48;;;;;;;0.00;0.00;;;;;;;;;;5082760;28;20726;-69
2021/06/15 06:04:14;;;;;;;0.00;0.00;;;;;;;;;;5107857;28;20489;-69
2021/06/15 06:09:24;;;;;;;0.00;0.00;;;;;;;;;;5086885;28;20167;-69
2021/06/15 06:11:49;;;;;;;0.00;0.00;;;;;;;;;;5087629;28;20229;-68
2021/06/15 06:14:14;;;;;;;0.10;0.10;;;;;;;;;;5086765;28;20891;-69
2021/06/15 06:16:42;;;;;;;0.00;0.00;;;;;;;;;;5084083;28;20269;-69
2021/06/15 06:19:07;;;;;;;0.00;0.00;;;;;;;;;;5081835;28;20016;-69
2021/06/15 06:21:33;;;;;;;0.00;0.00;;;;;;;;;;5085222;28;20039;-69
2021/06/15 06:23:59;;;;;;;0.00;0.00;;;;;;;;;;5090778;28;20016;-69
2021/06/15 06:26:25;;;;;;;0.00;0.00;;;;;;;;;;5083401;28;20019;-68
2021/06/15 06:28:51;;;;;;;0.00;0.00;;;;;;;;;;5083652;28;20387;-68
2021/06/15 06:31:16;;;;;;;0.00;0.00;;;;;;;;;;5081059;28;20140;-68
2021/06/15 06:33:44;;;;;;;0.00;0.00;;;;;;;;;;5065482;28;20016;-68
2021/06/15 06:36:10;;;;;;;0.00;0.00;;;;;;;;;;5081615;28;20361;-67
2021/06/15 06:38:35;;;;;;;0.00;0.00;;;;;;;;;;5078616;28;20127;-68
2021/06/15 06:41:00;;;;;;;0.00;0.00;;;;;;;;;;5077434;28;20282;-68
2021/06/15 06:43:26;;;;;;;0.00;0.00;;;;;;;;;;5091533;28;20266;-67
2021/06/15 06:45:52;;;;;;;0.00;0.00;;;;;;;;;;5064457;28;20024;-69
2021/06/15 06:48:38;;;;;;;0.00;0.00;;;;;;;;;;5063500;28;20101;-68
2021/06/15 06:51:03;;;;;;;;;;;;;;;;;;5099174;28;20034;-67
2021/06/15 06:53:28;;;;;;;0.00;0.00;;;;;;;;;;5090556;28;19916;-67
2021/06/15 06:55:54;;;;;;;0.00;0.00;;;;;;;;;;5081870;28;20023;-67
2021/06/15 06:58:19;;;;;;;0.00;0.00;;;;;;;;;;5092121;28;20107;-67
2021/06/15 07:00:44;;;;;;;0.00;0.00;;;;;;;;;;5082249;28;20793;-67
2021/06/15 07:03:09;;;;;;;0.00;0.00;;;;;;;;;;5075931;28;20262;-67
2021/06/15 07:05:34;;;;;;;0.00;0.00;;;;;;;;;;5079936;28;20024;-67
2021/06/15 07:08:00;;;;;;;0.00;0.00;;;;;;;;;;5079363;28;20262;-67
2021/06/15 07:10:25;;;;;;;0.00;0.00;;;;;;;;;;5083585;28;20750;-67
2021/06/15 07:12:50;;;;;;;0.00;0.00;;;;;;;;;;5081575;28;20789;-67
2021/06/15 07:15:16;;;;;;;0.00;0.00;;;;;;;;;;5083346;28;20397;-68
2021/06/15 07:17:41;;;;;;;0.00;0.00;;;;;;;;;;5078434;28;20028;-68
2021/06/15 07:20:07;;;;;;;0.00;0.00;;;;;;;;;;5082284;28;20031;-68
2021/06/15 07:22:32;;;;;;;0.00;0.00;;;;;;;;;;5090650;28;20031;-68
2021/06/15 07:24:57;;;;;;;0.00;0.00;;;;;;;;;;5079135;28;20012;-68
2021/06/15 07:27:23;;;;;;;0.00;0.00;;;;;;;;;;5068330;28;20278;-68
2021/06/15 07:29:48;;;;;;;0.00;0.00;;;;;;;;;;5084547;28;20304;-68
2021/06/15 07:32:13;;;;;;;0.00;0.00;;;;;;;;;;5076493;28;20034;-68
2021/06/15 07:34:39;;;;;;;0.00;0.00;;;;;;;;;;5070191;28;20413;-68
2021/06/15 07:37:04;;;;;;;0.00;0.00;;;;;;;;;;5083688;28;20375;-67
2021/06/15 07:39:29;;;;;;;0.00;0.00;;;;;;;;;;5076778;28;20760;-68
2021/06/15 07:41:55;;;;;;;0.00;0.00;;;;;;;;;;5085866;28;20290;-67
2021/06/15 07:44:20;;;;;;;0.00;0.00;;;;;;;;;;5087138;28;20031;-67
2021/06/15 07:46:45;;;;;;;0.00;0.00;;;;;;;;;;5080092;28;20266;-69
2021/06/15 07:49:10;;;;;;;0.00;0.00;;;;;;;;;;5085150;28;20494;-66
2021/06/15 07:51:36;;;;;;;0.00;0.00;;;;;;;;;;5076346;28;20019;-67
2021/06/15 07:54:01;;;;;;;0.00;0.00;;;;;;;;;;5060964;28;20020;-67
2021/06/15 07:56:26;;;;;;;0.00;0.00;;;;;;;;;;5082352;28;20031;-67
2021/06/15 07:58:51;;;;;;;0.00;0.00;;;;;;;;;;5080247;28;20281;-67
2021/06/15 08:01:16;;;;;;;0.00;0.00;;;;;;;;;;5096094;28;20691;-67
2021/06/15 08:03:42;;;;;;;0.00;0.00;;;;;;;;;;5083051;28;20280;-67
2021/06/15 08:06:07;;;;;;;0.00;0.00;;;;;;;;;;5102530;28;20506;-67
2021/06/15 08:08:32;;;;;;;0.00;0.00;;;;;;;;;;5066767;28;20020;-67
2021/06/15 08:10:57;;;;;;;0.00;0.00;;;;;;;;;;5081294;28;20270;-67
2021/06/15 08:13:22;;;;;;;0.00;0.00;;;;;;;;;;5075225;28;20274;-67
2021/06/15 08:15:49;;;;;;;0.00;0.00;;;;;;;;;;5100563;28;20277;-67
2021/06/15 08:18:15;;;;;;;0.00;0.00;;;;;;;;;;5096048;28;20262;-67
2021/06/15 08:20:40;;;;;;;0.00;0.00;;;;;;;;;;5104051;28;20357;-67
2021/06/15 08:23:06;;;;;;;0.00;0.00;;;;;;;;;;5080643;28;20107;-67
2021/06/15 08:25:31;;;;;;;0.00;0.00;;;;;;;;;;5109787;28;20448;-67
2021/06/15 08:27:56;;;;;;;0.03;0.00;;;;;;;;;;5096436;28;20323;-67
2021/06/15 08:30:22;;;;;;;0.00;0.00;;;;;;;;;;5079045;28;20051;-68
2021/06/15 08:32:47;;;;;;;0.00;0.00;;;;;;;;;;5083249;28;20494;-67
2021/06/15 08:35:12;;;;;;;0.00;0.00;;;;;;;;;;5079918;28;20028;-67
2021/06/15 08:37:38;;;;;;;0.00;0.00;;;;;;;;;;5074528;28;20047;-67
2021/06/15 08:40:03;;;;;;;0.00;0.00;;;;;;;;;;5069030;28;20033;-67
2021/06/15 08:42:29;;;;;;;0.00;0.00;;;;;;;;;;5065931;28;20017;-67
2021/06/15 08:44:54;;;;;;;0.00;0.00;;;;;;;;;;5066063;28;20028;-67
2021/06/15 08:47:19;;;;;;;0.00;0.00;;;;;;;;;;5070944;28;20028;-67
2021/06/15 08:49:44;;;;;;;0.00;0.00;;;;;;;;;;5067559;28;20557;-67
2021/06/15 08:52:10;;;;;;;0.00;0.00;;;;;;;;;;5052371;28;20120;-67
2021/06/15 08:54:35;;;;;;;0.00;0.00;;;;;;;;;;5068725;28;20103;-67
2021/06/15 08:57:01;;;;;;;0.00;0.00;;;;;;;;;;5066931;28;20027;-67
2021/06/15 08:59:26;;;;;;;0.00;0.00;;;;;;;;;;5068367;28;20081;-67
2021/06/15 09:01:56;;;;;;;0.00;0.00;;;;;;;;;;5066466;28;20385;-67
2021/06/15 09:04:21;;;;;;;0.00;0.00;;;;;;;;;;5068220;28;20032;-67
2021/06/15 09:06:46;;;;;;;0.00;0.00;;;;;;;;;;5064070;28;20012;-67
2021/06/15 09:09:12;;;;;;;0.00;0.00;;;;;;;;;;5067891;28;20278;-67
2021/06/15 09:11:50;;;;;;;0.00;0.00;;;;;;;;;;5066574;28;20027;-67
2021/06/15 09:14:16;;;;;;;0.00;0.00;;;;;;;;;;5068012;28;20028;-67
2021/06/15 09:16:47;;;;;;;0.00;0.00;;;;;;;;;;5050928;28;20036;-67
2021/06/15 09:19:13;;;;;;;0.00;0.00;;;;;;;;;;5046697;28;20044;-67
2021/06/15 09:21:39;;;;;;;0.00;0.00;;;;;;;;;;5046728;28;20032;-67
2021/06/15 09:24:08;;;;;;;0.00;0.00;;;;;;;;;;5068102;28;20024;-67
2021/06/15 09:26:52;;;;;;;0.00;0.00;;;;;;;;;;5068243;28;20020;-67
2021/06/15 09:29:18;;;;;;;0.00;0.00;;;;;;;;;;5071958;28;20029;-67
2021/06/15 09:31:53;;;;;;;0.00;0.00;;;;;;;;;;5070346;28;20032;-67
2021/06/15 09:34:19;;;;;;;0.00;0.00;;;;;;;;;;5070614;28;20052;-67
2021/06/15 09:36:44;;;;;;;0.00;0.00;;;;;;;;;;5072975;28;20409;-67
2021/06/15 09:39:09;;;;;;;0.00;0.00;;;;;;;;;;5084384;28;20369;-67
2021/06/15 09:41:40;;;;;;;0.00;0.00;;;;;;;;;;5076666;28;20028;-68
2021/06/15 09:44:12;;;;;;;0.00;0.00;;;;;;;;;;5095913;28;20480;-68
2021/06/15 09:46:42;;;;;;;0.00;0.00;;;;;;;;;;5060477;28;20411;-67
2021/06/15 09:49:09;;;;;;;0.00;0.00;;;;;;;;;;5081827;28;20102;-68
2021/06/15 09:51:34;;;;;;;0.00;0.00;;;;;;;;;;5083574;28;20020;-67
2021/06/15 09:53:59;;;;;;;0.00;0.00;;;;;;;;;;5080880;28;20022;-68
2021/06/15 09:56:24;;;;;;;0.00;0.00;;;;;;;;;;5083817;28;20430;-67
2021/06/15 09:58:50;;;;;;;0.00;0.00;;;;;;;;;;5081825;28;20035;-68
2021/06/15 10:01:22;;;;;;;0.00;0.00;;;;;;;;;;5082808;28;20039;-68
2021/06/15 10:04:06;;;;;;;0.00;0.00;;;;;;;;;;5088420;28;20093;-68
2021/06/15 10:06:38;;;;;;;0.00;0.00;;;;;;;;;;5079319;28;20022;-68
2021/06/15 10:09:04;;;;;;;0.00;0.00;;;;;;;;;;5066577;28;20016;-68
2021/06/15 10:11:30;;;;;;;0.00;0.00;;;;;;;;;;5070303;28;20391;-68
2021/06/15 10:13:57;;;;;;;0.00;0.00;;;;;;;;;;5083859;28;20081;-68
2021/06/15 10:16:22;;;;;;;0.00;0.00;;;;;;;;;;5074581;28;20480;-68
2021/06/15 10:18:47;;;;;;;0.00;0.00;;;;;;;;;;5083880;28;20073;-68
2021/06/15 10:21:12;;;;;;;0.00;0.00;;;;;;;;;;5079934;28;20286;-69
2021/06/15 10:23:38;;;;;;;0.00;0.00;;;;;;;;;;5063767;28;20369;-68
2021/06/15 10:26:06;;;;;;;0.00;0.00;;;;;;;;;;5066653;28;20020;-67
2021/06/15 10:28:31;;;;;;;0.00;0.00;;;;;;;;;;5066844;28;20070;-67
2021/06/15 10:31:00;;;;;;;0.00;0.00;;;;;;;;;;5080051;28;20025;-67
2021/06/15 10:33:26;;;;;;;0.00;0.00;;;;;;;;;;5074310;28;20039;-68
2021/06/15 10:35:55;;;;;;;0.00;0.00;;;;;;;;;;5061966;28;20383;-66
2021/06/15 10:38:29;;;;;;;0.00;0.00;;;;;;;;;;5068805;28;20121;-66
2021/06/15 10:40:55;;;;;;;0.00;0.00;;;;;;;;;;5059245;28;20047;-66
2021/06/15 10:43:26;;;;;;;0.00;0.00;;;;;;;;;;5060528;28;20017;-66
2021/06/15 10:45:57;;;;;;;0.00;0.00;;;;;;;;;;5069527;28;20013;-67
2021/06/15 10:48:23;;;;;;;0.00;0.00;;;;;;;;;;5069494;28;20121;-72
2021/06/15 10:50:49;;;;;;;0.00;0.00;;;;;;;;;;5072480;28;20537;-73
2021/06/15 10:53:15;;;;;;;0.00;0.00;;;;;;;;;;5070664;28;20056;-73
2021/06/15 10:55:45;;;;;;;0.00;0.00;;;;;;;;;;5071191;28;20346;-72
2021/06/15 10:58:10;;;;;;;0.00;0.00;;;;;;;;;;5072971;28;20044;-72
2021/06/15 11:00:43;;;;;;;0.00;0.00;;;;;;;;;;5068979;28;20533;-72
2021/06/15 11:03:19;;;;;;;0.00;0.00;;;;;;;;;;5066003;28;20009;-72
2021/06/15 11:05:58;;;;;;;0.00;0.00;;;;;;;;;;5070272;28;20025;-74
2021/06/15 11:08:24;;;;;;;0.00;0.00;;;;;;;;;;5072369;28;20017;-72
2021/06/15 11:10:53;;;;;;;0.00;0.00;;;;;;;;;;5072575;28;20028;-73
2021/06/15 11:13:18;;;;;;;0.00;0.00;;;;;;;;;;5069954;28;20480;-72
2021/06/15 11:15:57;;;;;;;0.30;0.00;;;;;;;;;;5065145;28;20077;-72
2021/06/15 11:18:22;;;;;;;0.00;0.00;;;;;;;;;;5053016;28;20267;-72
2021/06/15 11:20:47;;;;;;;0.00;0.00;;;;;;;;;;5072422;28;20492;-72
2021/06/15 11:23:16;;;;;;;0.00;0.00;;;;;;;;;;5053444;28;20021;-72
2021/06/15 11:25:44;;;;;;;0.00;0.00;;;;;;;;;;5072325;28;20023;-71
2021/06/15 11:28:28;;;;;;;0.00;0.00;;;;;;;;;;5072520;28;20499;-72
2021/06/15 11:31:13;;;;;;;0.00;0.00;;;;;;;;;;5071298;28;20515;-72
2021/06/15 11:33:57;;;;;;;0.00;0.00;;;;;;;;;;5069174;28;20017;-73
2021/06/15 11:36:40;;;;;;;0.00;0.00;;;;;;;;;;5070781;28;20397;-74
2021/06/15 11:39:31;;;;;;;0.00;0.00;;;;;;;;;;5088387;28;20040;-73
2021/06/15 11:42:09;;;;;;;0.00;0.00;;;;;;;;;;5099494;28;20104;-73
2021/06/15 11:44:54;;;;;;;0.00;0.00;;;;;;;;;;5082798;28;20020;-72
2021/06/15 11:47:23;;;;;;;0.00;0.00;;;;;;;;;;5091758;28;20111;-73
2021/06/15 11:50:21;;;;;;;0.00;0.00;;;;;;;;;;5090924;28;20028;-73
2021/06/15 11:52:52;;;;;;;0.00;0.00;;;;;;;;;;5079535;28;20483;-73
2021/06/15 11:55:18;;;;;;;0.00;0.00;;;;;;;;;;5091928;28;20024;-73
2021/06/15 11:57:43;;;;;;;0.00;0.00;;;;;;;;;;5065843;28;20031;-72
2021/06/15 12:00:18;;;;;;;0.00;0.00;;;;;;;;;;5081814;28;20274;-73
2021/06/15 12:02:43;;;;;;;0.00;0.00;;;;;;;;;;5082155;28;20028;-73
2021/06/15 12:05:13;;;;;;;0.00;0.00;;;;;;;;;;5080942;28;20020;-73
2021/06/15 12:07:39;;;;;;;0.00;0.00;;;;;;;;;;5082130;28;20016;-73
2021/06/15 12:10:04;;;;;;;0.00;0.00;;;;;;;;;;5082395;28;20572;-73
2021/06/15 12:12:29;;;;;;;0.00;0.00;;;;;;;;;;5091688;28;20020;-73
2021/06/15 12:14:54;;;;;;;0.00;0.00;;;;;;;;;;5091449;28;20039;-72
2021/06/15 12:17:20;;;;;;;0.00;0.00;;;;;;;;;;5082817;28;20277;-72
2021/06/15 12:19:45;;;;;;;0.00;0.00;;;;;;;;;;5081023;28;20293;-72
2021/06/15 12:22:14;;;;;;;0.00;0.00;;;;;;;;;;5073713;28;20017;-73
2021/06/15 12:24:43;;;;;;;0.00;0.00;;;;;;;;;;5079751;28;20422;-72
2021/06/15 12:27:17;;;;;;;0.00;0.00;;;;;;;;;;5080120;28;20027;-72
2021/06/15 12:29:43;;;;;;;0.00;0.00;;;;;;;;;;5084376;28;20032;-72
2021/06/15 12:32:08;;;;;;;0.00;0.00;;;;;;;;;;5080817;28;20103;-72
2021/06/15 12:34:33;;;;;;;0.00;0.00;;;;;;;;;;5063476;28;20476;-72
2021/06/15 12:37:03;;;;;;;0.00;0.00;;;;;;;;;;5081192;28;20028;-72
2021/06/15 12:39:29;;;;;;;0.00;0.00;;;;;;;;;;5070017;28;20074;-73
2021/06/15 12:42:01;;;;;;;0.00;0.00;;;;;;;;;;5070285;28;20024;-72
2021/06/15 12:44:28;;;;;;;0.00;0.00;;;;;;;;;;5048044;28;21606;-73
2021/06/15 12:46:57;;;;;;;0.00;0.00;;;;;;;;;;5051791;28;20469;-73
2021/06/15 12:49:22;;;;;;;0.00;0.00;;;;;;;;;;5068870;28;20027;-72
2021/06/15 12:51:59;;;;;;;0.00;0.00;;;;;;;;;;5071654;28;20469;-73
2021/06/15 12:54:24;;;;;;;0.00;0.00;;;;;;;;;;5051701;28;20020;-73
2021/06/15 12:56:52;;;;;;;0.00;0.00;;;;;;;;;;5071352;28;20021;-73
2021/06/15 12:59:20;;;;;;;0.00;0.00;;;;;;;;;;5066294;28;20384;-74
2021/06/15 13:01:45;;;;;;;0.00;0.00;;;;;;;;;;5073788;28;20276;-74
2021/06/15 13:04:17;;;;;;;0.00;0.00;;;;;;;;;;5073692;28;20035;-74
2021/06/15 13:06:43;;;;;;;0.00;0.00;;;;;;;;;;5051889;28;20138;-74
2021/06/15 13:09:12;;;;;;;0.00;0.00;;;;;;;;;;5073222;28;20123;-74
2021/06/15 13:11:37;;;;;;;0.00;0.00;;;;;;;;;;5070532;28;20013;-74
2021/06/15 13:14:03;;;;;;;0.00;0.00;;;;;;;;;;5056688;28;20020;-75
2021/06/15 13:16:35;;;;;;;0.00;0.00;;;;;;;;;;5074960;28;20091;-75
2021/06/15 13:19:04;;;;;;;0.00;0.00;;;;;;;;;;5073902;28;20012;-75
2021/06/15 13:21:46;;;;;;;0.00;0.00;;;;;;;;;;5071869;28;20017;-76
2021/06/15 13:24:13;;;;;;;0.00;0.00;;;;;;;;;;5072133;28;20032;-75
2021/06/15 13:26:38;;;;;;;0.00;0.00;;;;;;;;;;5089238;28;20020;-74
2021/06/15 13:29:05;;;;;;;0.00;0.00;;;;;;;;;;5073287;28;20074;-74
2021/06/15 13:31:31;;;;;;;0.00;0.00;;;;;;;;;;5071811;28;20027;-76
2021/06/15 13:34:09;;;;;;;0.00;0.00;;;;;;;;;;5075126;28;20099;-75
2021/06/15 13:36:34;;;;;;;0.00;0.00;;;;;;;;;;5054335;28;20123;-76
2021/06/15 13:39:09;;;;;;;0.00;0.00;;;;;;;;;;5074721;28;20032;-77
2021/06/15 13:41:35;;;;;;;0.00;0.00;;;;;;;;;;5091368;28;20020;-76
2021/06/15 13:44:00;;;;;;;0.00;0.00;;;;;;;;;;5086877;28;20012;-76
2021/06/15 13:46:26;;;;;;;0.00;0.00;;;;;;;;;;5086150;28;20027;-75
2021/06/15 13:48:53;;;;;;;0.00;0.00;;;;;;;;;;5093497;28;20008;-75
2021/06/15 13:51:18;;;;;;;0.00;0.00;;;;;;;;;;5085811;28;20057;-75
2021/06/15 13:53:43;;;;;;;0.00;0.00;;;;;;;;;;5083728;28;20499;-76
2021/06/15 13:56:08;;;;;;;0.00;0.00;;;;;;;;;;5094412;28;20375;-76
2021/06/15 13:58:34;;;;;;;0.00;0.00;;;;;;;;;;5084237;28;20091;-76
2021/06/15 14:00:59;;;;;;;0.00;0.00;;;;;;;;;;5067300;28;20043;-77
2021/06/15 14:03:25;;;;;;;0.00;0.00;;;;;;;;;;5093807;28;20503;-76
2021/06/15 14:05:50;;;;;;;0.00;0.00;;;;;;;;;;5085031;28;20305;-76
2021/06/15 14:08:17;;;;;;;0.00;0.00;;;;;;;;;;5094139;28;21599;-76
2021/06/15 14:10:42;;;;;;;0.00;0.00;;;;;;;;;;5090887;28;20016;-75
2021/06/15 14:13:08;;;;;;;0.00;0.00;;;;;;;;;;5082326;28;20491;-76
2021/06/15 14:15:33;;;;;;;0.00;0.00;;;;;;;;;;5085377;28;20030;-75
2021/06/15 14:17:59;;;;;;;0.00;0.00;;;;;;;;;;5085378;28;20034;-76
2021/06/15 14:20:25;;;;;;;0.00;0.00;;;;;;;;;;5083340;28;20016;-76
2021/06/15 14:22:50;;;;;;;0.00;0.00;;;;;;;;;;5093421;28;20030;-76
2021/06/15 14:25:16;;;;;;;0.00;0.00;;;;;;;;;;5093474;28;20094;-74
2021/06/15 14:27:42;;;;;;;0.00;0.00;;;;;;;;;;5083899;28;20426;-78
2021/06/15 14:30:08;;;;;;;0.00;0.00;;;;;;;;;;5067107;28;20035;-78
2021/06/15 14:32:33;;;;;;;0.00;0.00;;;;;;;;;;5068198;28;20024;-77
2021/06/15 14:34:58;;;;;;;0.00;0.00;;;;;;;;;;5093966;28;20028;-76
2021/06/15 14:37:23;;;;;;;0.00;0.00;;;;;;;;;;5093920;28;20468;-76
2021/06/15 14:39:48;;;;;;;0.00;0.00;;;;;;;;;;5084619;28;20035;-77
2021/06/15 14:42:14;;;;;;;0.00;0.00;;;;;;;;;;5085728;28;20053;-76
2021/06/15 14:44:39;;;;;;;0.00;0.00;;;;;;;;;;5085133;28;20265;-76